Accueil
METAR-TAF:

METAR-TAF

Aéroports :

Aéroport international de Pékin-Capitale

Pékin, Chine

latitude: 39-56N, longitude: 116-17E, altitude: 55 m

Observation

Le bulletin a été fait il y a 27 minutes, à 10:30 UTC
Vent calme
Température -4°C
Humidité 68%
Pression 1023 hPa
Visibilité: 8000 m

METAR: ZBAA 231030Z 00000MPS 8000 NSC M04/M09 Q1023 NOSIG

Heure: 18:57 (10:57 UTC)

Prévision

Le bulletin a été fait il y a 7 heures et 56 minutes, à 03:01 UTC
Prévision valable du 23 à 06 UTC au 24 à 06 UTC
Vent 8 kt de sud
Visibilité: 4000 m
brume

TAF: ZBAA 230301Z 2306/2406 18004MPS 4000 BR NSC TX04/2307Z TNM08/2321Z

Observations et prévisions météorologiques de plus de 4000 aéroports (messages METAR et TAF).

Les stations disponibles sont représentées par des disques jaunes et rouges sur la carte.

Passer la souris dessus pour voir le nom de la station.

Cliquer dessus pour voir les observations et prévisions météorologiques.

Pour changer de carte: cliquez sur les boutons verts avec une croix noire pour zoomer, sur le bouton vert avec un tiret pour effectuer un zoom arrière, ou sur les flèches vertes pour les cartes adjacentes.


METAR-TAF: